Date,TemperatureHighF,TemperatureAvgF,TemperatureLowF,DewpointHighF,DewpointAvgF,DewpointLowF,HumidityHigh,HumidityAvg,HumidityLow,PressureMaxIn,PressureMinIn,WindSpeedMaxMPH,WindSpeedAvgMPH,GustSpeedMaxMPH,PrecipitationSumIn
2013-1-1,78.1,73.6,70.3,62.1,58.8,55.6,69,60,55,30.24,30.06,17,6,17,0.00
2013-1-2,79.0,72.6,66.6,67.4,63.1,58.1,79,72,67,30.15,30.03,10,3,10,0.00
2013-1-3,81.7,74.5,69.3,70.1,66.8,64.6,86,77,66,30.15,30.06,12,4,12,0.00
2013-1-4,79.7,73.5,68.5,72.5,68.3,65.1,91,84,75,30.27,30.12,10,4,10,0.00
2013-1-5,76.8,71.1,68.2,71.3,68.0,65.8,94,90,81,30.27,30.18,12,4,12,0.11
2013-1-6,82.0,75.9,69.4,73.3,70.1,66.1,91,82,73,30.21,30.09,13,6,13,0.00
2013-1-7,74.5,72.1,69.8,70.2,68.6,67.1,92,89,83,30.21,30.09,12,5,12,0.41
2013-1-8,81.3,77.1,73.8,73.3,71.3,69.6,89,82,74,30.24,30.09,17,7,17,0.03
2013-1-9,81.5,78.0,75.9,72.0,70.4,68.5,86,78,71,30.33,30.18,57,9,58,0.00
2013-1-10,80.2,77.1,75.4,68.7,65.8,63.7,77,68,59,30.33,30.18,17,9,17,0.00
2013-1-11,80.1,76.8,75.0,68.7,66.7,64.5,76,71,65,30.27,30.18,17,8,17,0.01
2013-1-12,81.3,76.8,74.5,68.1,66.2,63.3,79,70,62,30.24,30.12,16,6,16,0.03
2013-1-13,81.1,76.5,74.1,67.1,64.5,61.7,74,67,60,30.15,30.09,17,8,17,0.00
2013-1-14,81.3,76.4,73.6,65.3,62.7,60.1,68,63,56,30.24,30.12,15,7,15,0.00
2013-1-15,80.4,76.7,74.7,66.6,64.5,61.1,75,66,60,30.18,30.06,13,6,13,0.00
2013-1-16,82.4,76.9,71.8,68.9,65.0,59.8,72,67,61,30.15,30.03,13,6,13,0.03
2013-1-17,78.3,72.2,62.6,70.5,64.9,53.4,84,78,72,30.12,30.00,25,6,25,0.74
2013-1-18,70.5,63.7,54.3,59.3,51.7,43.8,72,65,56,30.27,30.12,18,9,18,0.00
2013-1-19,72.1,69.7,67.1,67.2,62.7,55.8,94,79,60,30.24,30.12,13,5,13,0.28
2013-1-20,77.0,71.1,66.0,71.0,66.9,64.7,97,87,75,30.18,30.06,12,4,12,0.04
2013-1-21,79.9,73.6,67.8,71.1,67.1,63.3,87,80,73,30.09,30.00,13,5,13,0.05
2013-1-22,74.1,69.0,64.0,64.0,58.4,49.8,92,71,49,30.24,30.00,18,9,18,0.00
2013-1-23,74.1,69.3,63.5,55.1,51.1,47.8,67,53,45,30.33,30.18,15,7,15,0.00
2013-1-24,73.8,67.1,61.9,53.1,50.1,44.6,71,55,42,30.33,30.21,10,6,10,0.00
2013-1-25,77.2,68.6,62.2,58.2,52.0,46.4,64,56,47,30.33,30.18,12,4,12,0.00
2013-1-26,76.8,70.0,62.4,58.0,55.5,50.8,74,60,50,30.27,30.18,10,5,10,0.00
2013-1-27,78.6,73.6,68.2,61.3,58.2,55.2,69,59,46,30.33,30.18,15,6,15,0.00
2013-1-28,80.6,75.8,73.0,64.7,61.9,59.4,70,62,53,30.36,30.24,17,8,17,0.00
2013-1-29,79.7,75.9,74.1,68.2,65.0,16.5,74,69,64,30.30,30.15,15,8,15,0.01
2013-1-30,81.0,75.8,73.0,67.8,64.5,61.9,73,68,63,30.15,30.00,20,9,20,0.03
2013-1-31,75.0,68.4,60.6,68.6,57.3,37.9,86,68,42,30.21,29.94,17,7,17,0.05
2013-2-1,72.0,63.8,55.9,52.7,45.0,35.8,57,50,42,30.30,30.18,17,8,17,0.02
2013-2-2,75.6,66.5,58.3,50.9,45.0,32.8,59,46,38,30.30,30.12,12,5,12,0.01
2013-2-3,72.3,66.0,59.4,51.7,45.4,38.3,68,49,33,30.21,30.06,13,4,13,0.01
2013-2-4,75.4,64.9,54.0,52.4,44.5,35.3,64,48,38,30.18,30.06,9,4,9,0.00
2013-2-5,78.3,69.5,60.8,60.8,55.6,47.9,70,62,51,30.12,30.03,11,4,11,0.00
2013-2-6,78.6,71.9,65.7,66.1,61.2,58.1,83,70,56,30.15,30.06,12,4,12,0.00
2013-2-7,82.8,76.2,72.7,67.0,62.8,59.5,68,63,58,30.12,29.97,13,6,13,0.00
2013-2-8,81.5,75.2,70.9,68.4,65.4,60.5,87,72,57,30.06,29.94,16,6,16,0.00
2013-2-9,78.1,73.2,69.6,67.9,63.4,57.8,84,72,61,30.21,30.03,17,7,17,0.16
2013-2-10,76.3,73.0,71.6,61.7,59.6,55.6,68,63,57,30.30,30.18,22,10,22,0.00
2013-2-11,81.1,75.1,71.6,64.6,61.6,58.9,67,63,55,30.27,30.12,17,9,17,0.00
2013-2-12,82.6,76.4,72.1,69.4,65.3,61.7,78,69,63,30.18,30.00,16,7,16,0.00
2013-2-13,81.9,76.9,73.0,73.0,69.1,66.3,81,77,72,30.06,29.94,20,7,20,0.00
2013-2-14,79.2,72.2,65.1,72.1,67.8,62.7,93,86,78,30.03,29.88,25,6,25,1.13
2013-2-15,72.7,68.0,65.5,68.2,65.4,63.1,95,91,81,30.06,29.94,13,5,13,0.57
2013-2-16,71.1,65.7,56.7,64.5,55.2,40.9,95,72,37,30.09,29.88,28,11,28,0.00
2013-2-17,60.8,53.1,46.8,41.4,27.3,17.2,57,38,25,30.33,30.09,22,10,22,0.01
2013-2-18,68.7,60.2,48.7,54.3,41.4,29.4,62,50,45,30.36,30.21,17,9,17,0.00
2013-2-19,79.5,72.5,68.0,64.4,58.1,49.9,78,61,52,30.24,30.12,19,8,19,0.02
2013-2-20,78.1,72.2,66.7,66.7,63.7,61.3,89,75,65,30.15,30.06,12,4,12,0.00
2013-2-21,83.3,76.4,72.5,68.7,65.0,62.3,75,68,60,30.15,30.00,12,6,12,0.00
2013-2-22,84.4,77.8,74.3,72.3,68.6,63.8,81,74,65,30.15,30.03,15,9,15,0.00
2013-2-23,84.2,78.2,74.8,72.8,69.5,66.9,82,75,68,30.09,29.94,20,9,20,0.00
2013-2-24,86.4,78.2,73.0,76.3,71.8,68.0,92,81,69,30.06,29.94,13,4,13,0.00
2013-2-25,82.8,77.8,73.2,74.0,70.2,66.7,84,78,71,29.94,29.83,16,6,16,0.00
2013-2-26,82.6,78.9,75.9,73.9,70.6,68.1,81,76,67,29.94,29.83,18,8,19,0.00
2013-2-27,78.1,71.4,66.2,72.3,65.0,60.1,92,81,63,30.00,29.88,13,5,13,0.37
2013-2-28,69.8,65.3,60.6,64.3,52.1,44.7,93,64,42,30.06,29.94,15,6,15,0.00
2013-3-1,65.3,62.9,59.4,54.6,47.6,42.1,71,58,46,30.03,29.91,13,7,13,0.00
2013-3-2,64.0,58.7,54.9,46.2,37.3,31.5,62,45,35,30.06,29.94,26,10,26,0.00
2013-3-3,60.8,55.4,51.6,43.2,37.6,34.0,69,52,39,30.18,29.97,21,8,21,0.14
2013-3-4,67.3,55.6,45.1,39.9,34.5,30.0,60,46,31,30.27,30.12,20,7,20,0.07
2013-3-5,76.5,64.9,54.3,56.0,49.5,38.9,68,58,47,30.21,30.12,13,5,13,0.00
2013-3-6,77.0,66.1,55.0,60.9,48.1,26.0,82,56,24,30.12,29.94,21,9,21,0.02
2013-3-7,73.8,60.7,49.8,50.5,40.3,30.8,68,48,34,30.21,30.09,18,7,18,0.00
2013-3-8,74.3,65.1,57.2,50.4,48.4,45.5,71,56,42,30.21,30.12,11,5,11,0.00
2013-3-9,71.8,64.1,59.0,56.0,49.1,45.2,70,59,48,30.21,30.09,13,6,13,0.00
2013-3-10,76.6,71.6,68.0,58.1,52.3,48.6,64,51,44,30.18,30.09,16,9,16,0.00
2013-3-11,80.2,73.9,70.3,60.4,57.8,55.8,65,57,49,30.15,30.00,21,9,21,0.00
2013-3-12,80.1,75.0,71.6,68.1,63.1,58.2,73,67,60,30.03,29.94,18,9,18,0.00
2013-3-13,73.4,67.3,59.4,63.5,54.7,45.8,83,65,41,30.15,30.00,15,8,15,0.00
2013-3-14,69.3,62.9,56.8,50.4,44.3,37.6,70,52,35,30.24,30.09,19,8,19,0.18
2013-3-15,73.9,64.5,55.9,52.7,46.1,40.1,66,52,41,30.27,30.18,13,6,13,0.00
2013-3-16,78.8,68.6,60.4,54.5,51.3,48.7,72,55,41,30.24,30.12,13,4,13,0.00
2013-3-17,78.3,71.2,65.1,58.1,54.7,49.5,67,56,48,30.18,30.06,15,5,15,0.00
2013-3-18,81.3,74.3,69.4,67.6,62.7,56.7,83,68,58,30.12,30.00,20,7,20,0.09
2013-3-19,80.4,74.0,70.9,69.3,66.7,64.3,88,78,65,30.03,29.85,18,4,19,0.00
2013-3-20,82.4,73.9,66.6,70.8,65.8,52.8,90,77,47,30.03,29.83,20,4,20,0.02
2013-3-21,76.3,68.9,63.9,61.2,54.1,46.9,87,61,40,29.97,29.83,15,6,15,0.00
2013-3-22,76.6,70.6,63.1,66.3,56.4,49.2,74,61,52,30.03,29.91,15,5,15,0.04
2013-3-23,86.4,78.6,73.2,75.0,70.6,65.6,86,77,66,30.03,29.83,20,6,20,0.02
2013-3-24,88.2,80.2,75.6,72.1,68.9,63.5,87,70,45,29.94,29.74,26,9,26,0.17
2013-3-25,77.5,74.1,67.1,72.1,57.0,35.0,90,60,27,30.03,29.77,18,8,18,0.14
2013-3-26,67.5,61.8,55.4,37.6,32.6,28.1,41,34,25,30.24,30.00,22,12,22,0.00
2013-3-27,69.6,58.7,48.6,44.1,37.0,29.1,50,44,38,30.30,30.18,16,8,16,0.00
2013-3-28,73.2,63.5,54.1,46.6,40.6,31.3,57,44,26,30.30,30.18,12,6,12,0.00
2013-3-29,76.5,67.5,58.6,49.1,44.7,38.1,53,44,37,30.33,30.21,13,6,13,0.01
2013-3-30,80.8,72.0,66.9,51.5,47.8,45.2,48,43,33,30.30,30.18,115,6,115,0.00
2013-3-31,84.4,75.4,69.8,64.3,57.5,49.1,64,54,46,30.24,30.06,17,8,17,0.00
2013-4-1,82.8,76.9,73.0,68.7,64.2,59.1,74,65,47,30.09,29.97,20,7,20,0.00
2013-4-2,83.8,75.0,67.1,67.8,64.5,61.0,92,71,52,30.12,30.00,12,6,12,0.00
2013-4-3,87.1,78.9,74.3,70.3,66.5,63.9,72,66,52,30.12,30.03,14,7,14,0.00
2013-4-4,84.9,77.1,70.9,72.6,68.2,62.5,86,74,66,30.09,29.94,19,8,19,0.81
2013-4-5,74.7,70.0,67.3,69.8,65.5,62.8,93,86,78,30.03,29.85,21,6,21,1.05
2013-4-6,78.3,69.7,60.8,65.7,61.0,56.2,93,75,52,30.12,29.94,15,8,15,0.00
2013-4-7,79.9,74.5,71.8,62.6,60.6,57.9,69,62,50,30.18,30.06,17,8,17,0.00
2013-4-8,85.8,77.1,71.8,62.0,58.4,55.7,60,53,42,30.18,30.06,10,5,11,0.01
2013-4-9,85.3,78.0,74.8,67.1,63.5,25.7,69,62,16,30.21,30.06,13,7,13,0.01
2013-4-10,86.0,79.3,75.0,71.7,68.0,63.3,76,68,62,30.15,30.03,19,7,19,0.01
2013-4-11,86.9,79.8,76.5,73.1,70.6,68.9,80,74,64,30.06,29.94,20,10,20,0.00
2013-4-12,86.9,80.6,77.9,76.8,73.3,70.9,82,78,71,30.00,29.91,18,9,18,0.05
2013-4-13,81.7,77.9,75.0,74.1,71.7,68.8,87,81,75,30.03,29.88,15,4,15,0.11
2013-4-14,90.1,80.9,74.8,77.6,74.0,69.7,90,80,64,30.00,29.94,13,5,13,0.00
2013-4-15,89.1,79.7,73.4,78.7,72.9,66.2,88,80,68,30.09,29.94,14,4,14,0.33
2013-4-16,86.7,79.6,74.3,76.6,73.0,68.8,92,81,66,30.15,30.06,13,5,13,0.01
2013-4-17,86.4,79.9,76.1,70.5,67.5,64.0,79,67,52,30.15,30.06,58,6,58,0.00
2013-4-18,90.1,81.9,77.2,73.4,69.3,65.5,76,66,53,30.09,30.00,17,8,17,0.00
2013-4-19,90.0,82.9,78.6,74.2,71.3,68.6,77,68,57,30.09,30.00,20,9,20,0.00
2013-4-20,89.1,80.0,75.2,76.6,72.6,67.8,88,78,66,30.12,29.97,17,6,17,0.76
2013-4-21,86.2,79.0,73.2,74.5,71.5,68.3,92,79,65,30.15,30.00,15,5,15,0.00
2013-4-22,85.5,76.4,72.1,71.9,69.3,66.1,88,79,63,30.09,29.94,16,5,16,1.27
2013-4-23,83.1,76.0,68.9,69.1,65.0,58.3,92,70,49,30.12,29.94,15,8,15,0.00
2013-4-24,88.2,79.3,74.3,63.8,60.2,57.6,63,53,41,30.18,30.06,14,7,14,0.01
2013-4-25,85.3,78.6,74.5,60.4,58.0,55.0,58,50,40,30.24,30.09,12,6,12,0.00
2013-4-26,84.0,77.9,73.6,62.6,60.1,56.0,60,55,48,30.27,30.12,13,7,13,0.13
2013-4-27,86.2,78.9,74.7,64.5,60.6,57.1,62,54,45,30.24,30.12,17,9,17,0.00
2013-4-28,87.1,79.4,74.7,63.1,60.5,56.7,64,53,40,30.15,30.00,15,8,15,0.00
2013-4-29,84.7,79.5,76.3,68.5,64.5,45.0,70,60,32,30.09,29.94,15,9,15,0.00
2013-4-30,83.8,79.0,76.3,71.1,67.5,65.4,73,68,63,30.03,29.94,15,5,15,0.03
2013-5-1,86.2,78.8,73.4,72.0,68.9,65.5,83,72,62,30.03,29.94,15,4,15,0.22
2013-5-2,78.3,74.5,69.3,71.2,69.0,65.1,92,83,73,29.97,29.83,26,9,26,1.62
2013-5-3,85.5,75.3,69.3,72.3,68.9,65.7,95,81,63,29.85,29.71,16,6,17,0.50
2013-5-4,87.1,76.6,69.4,70.2,66.2,61.0,94,73,44,29.83,29.71,15,7,15,0.01
2013-5-5,82.6,74.4,69.6,67.2,59.6,47.4,90,63,32,29.97,29.80,17,8,17,0.00
2013-5-6,83.5,73.6,63.9,63.2,57.6,48.1,75,58,43,30.03,29.94,12,5,12,0.09
2013-5-7,83.5,73.3,64.9,64.8,58.5,52.9,75,60,43,30.09,30.00,15,6,15,0.01
2013-5-8,88.9,75.2,65.5,64.4,60.2,55.3,79,61,42,30.18,30.06,9,4,9,0.07
2013-5-9,89.1,79.0,69.1,71.8,65.1,55.9,70,63,54,30.18,30.09,11,5,11,0.00
2013-5-10,90.5,83.0,77.4,72.7,69.9,66.6,72,65,53,30.18,30.06,58,6,58,0.00
2013-5-11,89.8,82.2,77.7,75.0,71.7,65.4,85,71,60,30.12,30.03,18,6,18,0.00
2013-5-12,90.0,80.7,74.5,74.8,70.7,64.1,84,72,59,30.12,29.97,25,5,25,0.71
2013-5-13,86.4,78.4,73.2,71.7,68.7,64.3,92,74,51,30.12,30.00,15,5,15,0.00
2013-5-14,84.4,78.6,75.0,64.7,57.3,51.0,64,49,34,30.21,30.06,14,8,14,0.00
2013-5-15,87.3,78.8,74.7,60.0,55.8,51.6,53,45,39,30.24,30.12,15,8,15,0.00
2013-5-16,89.4,79.8,74.3,61.4,56.8,51.6,52,46,38,30.15,30.06,15,6,15,0.00
2013-5-17,91.0,81.7,76.8,72.1,66.4,57.6,76,60,50,30.15,30.03,14,6,14,0.34
2013-5-18,89.2,82.0,77.7,72.9,69.6,66.7,79,67,55,30.15,30.06,15,6,15,0.53
2013-5-19,90.9,82.5,78.1,70.8,66.9,62.6,68,60,47,30.15,30.03,13,6,13,0.04
2013-5-20,81.7,78.4,73.0,73.0,70.3,67.0,90,76,66,30.12,30.00,15,7,15,3.02
2013-5-21,85.3,78.3,72.9,73.8,70.6,68.2,91,78,63,30.09,29.94,17,6,17,0.05
2013-5-22,84.6,78.2,75.2,75.1,70.9,68.2,86,78,68,30.03,29.94,20,5,20,0.75
2013-5-23,93.2,82.5,75.4,74.8,71.6,63.0,91,71,41,30.06,29.94,13,6,13,0.01
2013-5-24,91.6,84.1,77.5,75.4,73.4,70.1,90,71,55,30.09,29.94,12,5,12,0.00
2013-5-25,87.8,81.9,76.6,71.8,65.5,60.4,78,58,42,30.21,30.06,15,7,15,0.02
2013-5-26,87.3,80.9,76.8,65.7,61.6,54.6,65,52,44,30.21,30.12,15,8,15,0.00
2013-5-27,87.6,80.9,77.4,71.5,67.7,59.9,78,64,53,30.18,30.09,18,10,19,0.25
2013-5-28,84.6,79.9,77.7,73.4,71.6,70.1,82,76,66,30.18,30.06,58,10,58,0.05
2013-5-29,80.1,77.2,74.3,73.5,71.4,68.4,90,82,72,30.15,30.06,28,11,28,2.74
2013-5-30,84.2,79.3,75.2,74.0,71.8,69.1,86,78,66,30.12,30.03,27,12,27,0.04
2013-5-31,84.2,79.9,76.6,75.3,73.2,70.7,87,80,73,30.09,30.03,18,9,18,0.08
2013-6-1,85.3,79.1,75.9,77.3,74.4,73.1,92,86,75,30.06,29.97,17,5,17,0.29
2013-6-2,88.7,80.2,74.5,78.6,74.3,70.0,95,83,67,30.03,29.94,12,3,12,0.07
2013-6-3,89.8,81.7,76.3,77.1,74.0,71.0,88,78,62,30.06,29.94,14,3,14,0.08
2013-6-4,86.4,80.5,75.7,76.7,73.9,71.4,91,81,64,30.09,29.97,13,3,13,0.14
2013-6-5,85.1,82.0,80.2,77.2,75.7,73.8,86,81,76,30.06,29.94,13,6,13,0.01
2013-6-6,87.8,81.4,77.5,80.4,76.1,71.5,90,84,76,29.94,29.83,24,10,24,0.44
2013-6-7,87.1,78.5,75.2,79.0,73.0,70.4,96,83,69,30.03,29.85,21,6,21,0.36
2013-6-8,88.0,80.5,75.6,81.1,75.9,72.4,93,86,76,30.15,30.00,15,4,15,0.02
2013-6-9,90.5,84.0,79.9,88.3,74.5,72.0,96,74,59,30.15,30.06,15,7,15,0.02
2013-6-10,93.6,85.7,81.0,77.1,74.7,71.3,82,70,51,30.15,30.03,115,7,115,0.00
2013-6-11,88.2,83.7,34.2,76.7,74.8,27.7,82,75,63,30.15,30.03,15,5,15,0.13
2013-6-12,87.1,82.5,79.7,78.3,75.8,74.2,89,81,71,30.12,30.03,10,2,10,0.00
2013-6-13,91.2,83.1,77.4,78.1,74.4,70.1,93,76,57,30.09,29.94,12,3,12,0.00
2013-6-14,91.8,82.8,77.0,75.4,71.9,68.5,86,70,52,30.03,29.91,15,5,15,0.00
2013-6-15,94.6,84.5,77.2,77.1,74.1,52.5,89,72,51,30.09,29.94,9,4,9,0.00
2013-6-16,96.3,86.8,80.2,77.8,74.3,71.1,82,67,54,30.15,30.03,12,4,12,0.00
2013-6-17,94.6,87.6,82.9,76.2,73.3,71.0,71,63,52,30.15,30.03,13,6,13,0.00
2013-6-18,95.9,87.9,82.9,76.7,73.4,70.6,70,63,50,30.12,30.03,13,6,13,0.00
2013-6-19,95.2,86.9,82.0,76.8,73.9,71.2,78,66,53,30.09,30.00,13,5,13,0.00
2013-6-20,94.1,84.2,75.6,76.4,72.1,64.7,80,68,54,30.12,30.06,20,4,20,0.88
2013-6-21,95.5,87.0,82.0,74.4,72.0,69.3,71,62,47,30.18,30.06,13,6,13,0.01
2013-6-22,94.3,86.7,81.9,74.4,71.5,68.9,71,61,46,30.15,30.06,57,6,58,0.00
2013-6-23,93.7,86.3,82.0,74.7,71.9,70.0,70,63,50,30.18,30.06,14,7,14,0.00
2013-6-24,93.4,86.3,81.9,74.9,71.8,69.6,71,63,49,30.21,30.09,14,7,14,0.04
2013-6-25,91.4,85.7,82.2,76.2,73.2,70.0,72,67,58,30.18,30.06,15,7,15,0.00
2013-6-26,92.7,85.3,81.3,76.0,73.6,71.8,77,68,56,30.12,30.03,14,7,14,0.33
2013-6-27,89.8,84.6,80.8,76.4,73.6,70.9,81,70,62,30.09,29.97,10,4,10,0.26
2013-6-28,93.9,83.2,78.1,77.5,73.6,67.1,85,73,58,30.03,29.88,13,4,13,0.16
2013-6-29,92.5,82.4,77.2,78.9,74.4,68.8,86,77,59,29.97,29.85,18,4,18,0.17
2013-6-30,89.8,83.3,79.2,76.6,73.3,70.6,82,72,64,29.97,29.88,18,7,19,0.00
2013-7-1,88.7,83.7,79.0,77.7,74.1,70.9,83,73,67,30.09,29.94,18,7,18,0.11
2013-7-2,93.0,84.8,80.6,80.0,76.2,72.6,85,76,65,30.15,30.00,14,6,14,0.00
2013-7-3,90.7,83.5,80.2,78.7,74.9,72.4,80,75,68,30.15,30.06,19,8,19,0.30
2013-7-4,90.7,85.0,81.3,76.7,74.3,70.9,79,71,62,30.21,30.09,17,8,17,0.00
2013-7-5,85.8,82.5,80.2,76.7,74.7,72.3,83,77,70,30.18,30.06,20,8,20,0.54
2013-7-6,90.1,84.3,80.8,76.8,74.2,72.2,80,72,63,30.18,30.06,15,8,15,0.07
2013-7-7,91.4,85.3,81.3,76.4,73.9,71.7,78,69,57,30.15,30.06,15,7,15,0.00
2013-7-8,92.7,86.0,81.5,74.9,72.0,69.6,70,63,51,30.18,30.09,13,6,13,0.00
2013-7-9,90.7,84.5,78.3,73.5,70.7,67.2,73,64,53,30.18,30.06,14,5,14,0.01
2013-7-10,89.1,81.1,73.9,75.9,71.9,66.6,88,74,63,30.12,30.03,11,4,11,1.18
2013-7-11,92.7,85.2,80.8,77.3,74.0,71.0,78,70,58,30.09,29.97,13,5,13,1.18
2013-7-12,91.6,83.1,79.5,76.7,73.2,67.4,85,73,58,30.03,29.94,13,3,13,0.00
2013-7-13,85.5,77.9,74.1,75.8,72.1,68.2,92,83,68,30.06,29.94,12,3,12,1.19
2013-7-14,90.1,79.9,73.8,75.7,73.0,69.7,91,80,62,30.12,30.03,15,6,15,0.36
2013-7-15,90.3,81.7,75.7,77.8,73.5,69.6,92,77,58,30.12,30.06,15,4,15,0.37
2013-7-16,85.3,79.7,76.3,73.2,71.0,68.5,86,75,64,30.18,30.06,26,9,26,0.36
2013-7-17,81.9,78.6,75.6,75.3,72.5,70.7,88,82,76,30.18,30.06,17,6,17,0.59
2013-7-18,83.7,77.8,73.8,77.9,73.6,69.3,91,87,77,30.18,30.06,17,4,17,0.72
2013-7-19,87.8,82.1,75.7,78.7,76.1,63.0,94,83,73,30.18,30.06,13,5,15,0.00
2013-7-20,87.6,83.5,79.5,79.1,76.6,71.8,87,80,72,30.15,30.06,17,6,17,0.00
2013-7-21,90.7,83.4,79.0,80.3,76.4,72.1,88,80,70,30.18,30.06,11,3,11,0.00
2013-7-22,94.3,85.8,80.8,78.4,75.5,72.3,84,72,58,30.18,30.09,13,6,13,0.00
2013-7-23,94.1,85.9,79.5,79.0,75.0,71.3,86,71,59,30.15,30.00,14,5,14,0.00
2013-7-24,92.7,84.8,79.2,78.2,73.3,64.9,87,70,49,30.06,29.94,14,5,14,0.00
2013-7-25,93.4,84.8,78.4,74.6,71.6,67.9,83,66,46,30.06,29.94,15,5,15,0.00
2013-7-26,92.5,83.2,79.5,75.8,73.6,70.5,86,74,51,30.06,29.94,18,5,18,0.41
2013-7-27,86.4,80.5,77.4,78.0,75.3,72.6,91,85,75,30.03,29.94,13,2,13,0.14
2013-7-28,86.7,80.8,76.5,78.8,75.4,72.3,91,84,75,30.09,29.97,9,1,9,0.24
2013-7-29,92.1,84.6,78.4,79.6,75.8,73.4,87,76,63,30.18,30.06,12,3,12,0.00
2013-7-30,93.6,86.5,79.0,78.8,76.4,71.0,85,73,58,30.21,30.12,15,4,15,0.39
2013-7-31,93.6,87.4,82.9,77.3,74.7,70.3,77,67,55,30.18,30.03,10,4,10,0.00
2013-8-1,90.9,85.2,82.6,73.9,72.3,70.8,69,66,55,30.09,29.97,115,5,115,0.00
2013-8-2,88.3,82.8,77.9,75.2,72.4,68.9,83,71,65,30.09,29.94,10,3,10,0.59
2013-8-3,85.5,79.2,75.1,77.1,73.8,68.6,90,84,71,30.21,30.03,21,2,21,0.43
2013-8-4,93.6,82.4,76.5,79.8,75.4,70.1,92,80,60,30.15,30.00,13,2,13,0.14
2013-8-5,87.8,81.9,77.9,79.7,75.7,71.9,92,82,70,30.09,29.97,11,2,11,0.21
2013-8-6,93.2,83.4,77.4,79.5,75.4,70.1,91,78,63,30.03,29.94,9,1,9,0.00
2013-8-7,91.9,85.3,34.2,77.3,75.0,23.2,80,72,60,30.03,29.94,13,4,13,0.01
2013-8-8,93.4,86.8,83.3,77.1,74.7,71.9,77,68,56,30.06,29.94,14,5,14,0.02
2013-8-9,88.7,85.2,82.8,75.7,72.8,68.8,73,67,55,30.09,29.97,115,5,115,0.00
2013-8-10,94.3,86.8,82.4,77.5,74.8,72.4,78,68,53,30.15,30.06,13,4,13,0.00
2013-8-11,93.7,87.5,83.1,77.5,74.7,70.8,77,66,52,30.18,30.09,10,4,10,0.00
2013-8-12,92.1,86.7,82.9,75.4,72.8,70.5,69,63,54,30.15,30.03,8,3,8,0.00
2013-8-13,95.4,87.9,83.3,75.9,73.8,70.8,73,64,50,30.09,29.97,9,4,9,0.00
2013-8-14,95.0,87.4,83.1,75.6,72.7,70.4,69,62,51,30.06,29.94,57,3,58,0.01
2013-8-15,87.3,83.4,77.9,76.4,73.9,69.9,85,73,65,30.09,30.00,14,2,14,0.78
2013-8-16,93.7,86.7,81.3,79.0,77.0,74.8,87,73,60,30.09,30.00,8,2,15,0.00
2013-8-17,94.3,87.9,84.0,78.8,76.8,74.4,77,70,59,30.12,30.03,12,4,12,0.00
2013-8-18,92.3,87.0,83.7,79.0,75.9,74.1,76,70,62,30.12,30.00,15,4,15,0.06
2013-8-19,93.7,87.5,83.5,82.4,76.1,73.2,96,70,58,30.09,30.00,57,4,58,0.00
2013-8-20,92.8,87.1,82.4,76.7,74.9,72.5,75,67,58,30.12,30.00,13,3,13,0.00
2013-8-21,91.0,85.7,82.6,79.6,76.5,72.9,81,74,66,30.12,30.00,13,5,13,0.13
2013-8-22,93.4,87.5,82.2,78.6,76.3,73.4,80,70,58,30.12,30.00,58,4,58,0.00
2013-8-23,91.8,86.6,83.3,77.7,74.8,72.2,75,68,61,30.03,29.97,12,2,12,0.00
2013-8-24,93.9,86.7,80.6,77.2,74.2,69.1,77,67,53,30.18,30.00,14,2,14,0.46
2013-8-25,87.8,82.6,76.5,77.6,74.9,72.6,89,78,66,30.21,30.06,12,1,12,1.14
2013-8-26,90.1,83.7,77.5,76.1,73.6,70.7,85,72,63,30.15,30.06,10,2,10,0.13
2013-8-27,83.7,79.8,76.1,76.0,73.0,69.5,90,80,67,30.09,30.00,10,0,10,0.23
2013-8-28,90.9,83.6,79.7,76.2,73.7,68.2,79,73,61,30.09,29.97,115,2,115,0.30
2013-8-29,91.9,84.0,76.5,78.3,74.7,68.0,88,74,60,30.06,29.97,8,1,8,0.53
2013-8-30,92.5,85.5,79.7,99.9,74.7,70.9,87,70,60,30.06,29.94,10,2,10,0.00
2013-8-31,89.6,83.0,77.9,76.4,73.2,70.2,84,73,63,30.03,29.94,11,1,11,0.02
2013-9-1,88.3,82.4,77.4,79.1,75.3,72.0,91,80,67,30.03,29.94,7,0,7,0.00
2013-9-2,90.9,81.2,77.2,79.9,75.1,69.0,92,82,65,30.06,29.97,11,1,11,0.03
2013-9-3,90.5,82.8,75.6,79.4,75.4,72.1,90,79,66,30.06,29.94,7,1,7,0.00
2013-9-4,86.7,84.4,82.2,78.5,76.2,73.7,81,76,72,30.09,29.94,115,1,115,0.01
2013-9-5,92.1,86.2,70.7,78.6,76.2,35.1,82,72,27,30.12,30.00,9,2,9,0.00
2013-9-6,93.7,87.3,83.1,78.3,76.1,21.3,80,70,58,30.09,29.94,10,2,10,0.00
2013-9-7,86.4,80.3,75.9,78.8,74.4,70.8,92,83,68,30.03,29.94,8,0,8,0.18
2013-9-8,88.3,81.3,75.4,79.7,74.7,72.2,95,81,66,30.00,29.88,5,0,5,0.06
2013-9-9,91.8,84.2,77.5,76.1,73.7,71.1,86,71,56,30.03,29.91,10,2,10,0.00
2013-9-10,88.9,84.8,81.9,76.0,74.0,71.5,79,70,62,30.09,29.97,12,4,12,0.10
2013-9-11,83.8,81.8,77.7,77.6,74.3,71.5,89,78,69,30.09,29.97,10,3,10,0.65
2013-9-12,86.4,82.3,79.7,77.4,75.2,72.6,88,79,74,30.03,29.91,6,1,6,0.01
2013-9-13,92.5,84.0,77.4,78.9,75.4,70.8,93,77,56,29.94,29.83,8,2,8,0.00
2013-9-14,93.2,85.9,79.3,76.6,74.3,71.6,87,69,54,30.03,29.83,8,2,8,0.00
2013-9-15,86.7,83.5,81.7,78.1,75.1,69.2,84,76,66,30.09,29.94,13,4,15,0.03
2013-9-16,85.8,82.2,80.6,78.5,75.8,71.8,86,81,71,30.09,29.97,18,5,19,0.87
2013-9-17,81.9,80.6,78.1,77.2,75.5,73.3,91,85,79,30.06,29.94,13,4,13,0.56
2013-9-18,87.8,82.0,77.2,78.6,75.1,71.8,89,80,67,30.06,29.94,8,1,8,0.21
2013-9-19,88.7,82.5,76.5,77.0,74.2,69.7,92,77,66,30.03,29.94,14,4,14,0.00
2013-9-20,88.9,83.3,79.9,71.3,68.6,65.7,73,62,48,30.03,29.94,9,3,9,0.01
2013-9-21,91.2,84.7,80.1,73.4,70.5,68.3,70,63,53,29.97,29.83,8,3,8,0.00
2013-9-22,92.5,84.9,79.2,77.3,74.5,70.2,86,71,59,29.91,29.80,10,3,10,0.00
2013-9-23,87.3,82.3,79.3,78.5,76.4,71.9,92,83,71,30.03,29.88,26,1,26,0.17
2013-9-24,87.8,81.6,77.0,80.5,76.3,71.0,93,84,74,30.03,29.88,15,3,15,0.11
2013-9-25,88.0,81.0,76.6,78.3,73.7,70.9,87,79,62,29.94,29.83,16,2,16,0.16
2013-9-26,87.3,80.9,77.5,80.0,76.6,74.1,93,87,73,29.91,29.83,18,3,18,0.42
2013-9-27,87.8,81.3,75.4,77.2,73.7,68.8,96,79,58,29.94,29.83,9,2,9,0.00
2013-9-28,88.3,81.9,75.9,75.7,72.0,68.1,90,73,58,30.00,29.88,11,3,11,0.05
2013-9-29,89.8,84.0,79.7,69.6,67.6,65.9,67,58,47,30.03,29.91,10,3,10,0.00
2013-9-30,90.9,84.5,79.9,70.1,67.7,65.4,64,57,47,30.06,29.94,7,2,7,0.00
2013-10-1,89.4,84.8,81.7,72.9,69.7,67.1,65,61,52,30.06,29.97,13,4,13,0.00
2013-10-2,88.3,83.8,81.1,72.6,70.8,69.5,71,65,57,30.09,29.97,57,6,58,0.00
2013-10-3,89.2,84.1,81.0,74.0,71.4,68.3,76,66,55,30.09,29.94,10,3,10,0.00
2013-10-4,89.8,84.2,80.8,71.3,69.1,65.6,69,61,50,30.12,30.00,7,2,7,0.00
2013-10-5,90.1,84.0,77.2,71.8,68.3,65.4,72,60,49,30.06,29.94,115,2,115,0.00
2013-10-6,90.9,85.0,81.0,73.5,70.4,66.8,70,62,51,30.00,29.88,7,1,7,0.00
2013-10-7,89.1,81.1,77.2,75.6,70.7,66.8,80,71,58,29.94,29.83,21,3,21,0.02
2013-10-8,88.3,81.6,76.8,77.2,73.2,67.7,92,76,59,29.97,29.85,12,4,12,0.00
2013-10-9,83.7,78.4,74.5,75.5,72.1,67.7,89,81,70,30.03,29.94,13,6,13,0.00
2013-10-10,87.1,80.7,73.6,75.2,71.3,66.4,91,75,57,30.06,29.94,12,6,12,0.00
2013-10-11,86.9,81.7,76.3,68.7,65.2,61.3,71,58,47,30.06,29.94,12,5,12,0.00
2013-10-12,87.8,81.6,74.1,66.4,64.1,60.4,71,56,46,30.06,29.94,57,4,58,0.00
2013-10-13,86.0,80.9,75.6,68.8,63.1,58.3,74,56,42,30.09,30.00,13,5,13,0.00
2013-10-14,87.4,81.0,34.2,68.7,65.0,22.9,75,59,47,30.06,29.94,10,5,10,0.00
2013-10-15,86.9,80.6,73.4,71.5,68.1,64.9,85,66,55,30.00,29.88,10,5,10,0.00
2013-10-16,85.8,80.7,75.6,70.6,67.0,29.5,75,63,53,30.00,29.91,57,4,58,0.00
2013-10-17,88.5,82.6,76.6,70.6,68.4,36.2,75,63,51,30.03,29.91,9,4,9,0.16
2013-10-18,89.2,83.1,77.7,72.5,69.5,66.8,75,64,54,30.03,29.91,10,4,10,0.16
2013-10-19,90.3,83.9,80.1,74.4,70.7,68.3,70,65,58,30.00,29.88,13,5,13,0.00
2013-10-20,88.7,83.4,79.5,77.2,73.6,70.2,84,73,65,30.00,29.88,10,3,10,0.00
2013-10-21,90.9,85.1,81.3,77.0,74.0,71.4,78,70,61,30.03,29.94,12,5,12,0.00
2013-10-22,90.1,84.5,80.6,76.8,74.1,70.5,79,71,64,30.00,29.85,13,5,13,0.00
2013-10-23,86.5,80.9,78.3,75.8,71.7,65.6,89,74,59,29.97,29.83,13,5,13,0.01
2013-10-24,79.9,77.3,73.8,66.3,62.8,57.1,71,61,49,30.15,29.97,13,6,13,0.00
2013-10-25,81.3,77.9,71.2,64.6,60.0,56.9,68,54,47,30.18,30.06,19,7,19,0.00
2013-10-26,84.6,78.9,73.9,61.0,57.9,55.0,56,49,41,30.18,30.06,58,5,58,0.00
2013-10-27,83.7,76.4,69.4,63.6,58.6,56.1,65,55,44,30.15,30.06,12,4,12,0.00
2013-10-28,85.3,79.9,75.7,63.6,60.0,57.1,59,51,40,30.18,30.06,12,6,12,0.00
2013-10-29,84.7,80.7,77.5,67.1,63.4,59.9,64,56,48,30.21,30.09,15,8,15,0.00
2013-10-30,126.3,82.0,34.2,99.9,64.8,-7.5,96,56,16,30.21,30.12,18,9,18,0.00
2013-10-31,126.3,81.3,77.9,70.7,68.3,62.8,71,65,57,30.18,30.03,14,8,14,0.04
2013-11-1,87.4,82.0,79.2,74.3,71.0,68.2,73,69,63,30.03,29.91,20,6,20,0.00
2013-11-2,87.6,79.9,74.5,72.5,68.0,60.9,88,69,44,30.00,29.83,15,4,15,0.00
2013-11-3,80.6,75.2,69.6,64.3,60.7,56.4,76,61,47,30.06,29.91,18,9,18,0.00
2013-11-4,79.9,77.2,75.6,66.6,61.5,52.8,69,59,43,30.12,30.03,22,12,22,0.01
2013-11-5,82.2,78.9,77.2,70.1,67.2,63.3,77,68,61,30.15,30.03,23,13,23,0.06
2013-11-6,84.9,80.0,77.4,69.1,67.3,64.6,74,66,53,30.09,30.00,20,8,20,0.00
2013-11-7,84.2,77.8,72.0,71.6,68.5,64.1,88,74,63,30.06,29.94,10,5,10,0.00
2013-11-8,83.7,77.6,72.7,73.3,69.9,67.0,89,78,61,30.06,29.91,18,7,18,0.10
2013-11-9,79.0,77.2,75.4,73.5,71.7,70.0,92,83,77,30.15,29.91,21,12,21,0.03
2013-11-10,82.4,79.2,77.4,71.6,69.3,65.8,82,72,65,30.18,30.06,15,8,15,0.00
2013-11-11,83.8,79.6,77.4,70.2,67.0,63.6,74,66,58,30.15,30.06,14,8,14,0.00
2013-11-12,84.4,79.5,75.2,67.8,65.1,62.2,70,62,52,30.12,29.91,9,5,9,0.00
2013-11-13,76.5,73.1,70.9,64.6,61.5,53.4,77,67,55,30.27,30.03,22,10,22,0.04
2013-11-14,76.8,73.4,70.9,59.2,54.6,51.5,60,52,46,30.27,30.18,20,12,20,0.00
2013-11-15,80.6,77.0,73.9,67.2,64.6,58.7,70,66,59,30.18,30.06,19,10,19,0.00
2013-11-16,81.5,79.2,76.8,71.8,67.7,64.6,80,68,64,30.15,30.03,17,7,17,0.02
2013-11-17,84.7,80.6,77.9,72.1,69.7,67.9,79,70,61,30.12,30.03,18,7,18,0.00
2013-11-18,83.5,79.7,76.1,72.5,69.9,67.9,83,72,65,30.06,29.91,15,3,13,0.00
2013-11-19,83.3,76.4,73.6,73.5,70.9,67.6,94,83,70,29.97,29.88,14,3,14,1.16
2013-11-20,83.1,77.3,71.6,75.7,72.8,70.4,96,86,73,30.09,29.94,10,4,10,0.01
2013-11-21,79.0,76.8,73.2,73.9,71.9,69.7,91,85,79,30.18,30.06,18,7,18,1.56
2013-11-22,81.5,78.3,76.3,71.8,69.6,66.7,82,75,65,30.21,30.09,21,10,21,0.00
2013-11-23,82.6,78.7,76.1,71.4,69.4,67.0,83,73,64,30.12,30.00,15,7,15,0.01
2013-11-24,79.9,75.2,70.7,69.0,66.4,62.5,87,75,62,30.18,30.00,23,8,23,0.38
2013-11-25,75.6,73.9,72.5,68.4,63.4,59.2,80,70,63,30.24,30.09,23,14,23,0.00
2013-11-26,82.0,77.9,73.8,74.5,72.4,68.1,89,83,77,30.09,29.83,22,10,22,0.16
2013-11-27,78.6,72.6,59.7,74.6,63.7,48.7,95,75,47,30.15,29.83,20,8,20,0.45
2013-11-28,72.7,61.3,50.7,59.7,51.1,45.3,83,70,50,30.27,30.12,18,9,18,0.00
2013-11-29,75.0,72.3,64.9,61.0,56.7,52.3,70,58,51,30.30,30.18,17,9,17,0.00
2013-11-30,75.4,71.6,64.2,70.0,62.0,56.5,91,72,61,30.24,30.12,23,8,23,0.49
2013-12-1,80.4,73.2,69.3,68.1,65.6,58.8,93,78,63,30.15,29.94,13,5,13,2.34
2013-12-2,72.7,68.6,65.5,68.1,64.4,58.6,98,87,65,29.97,29.83,15,5,15,0.03
2013-12-3,79.0,70.9,64.2,66.1,63.5,61.2,93,78,63,30.06,29.91,8,2,8,0.00
2013-12-4,81.7,74.7,68.5,68.9,65.7,63.2,88,74,61,30.15,30.03,11,3,11,0.00
2013-12-5,82.6,78.1,75.2,70.2,66.9,63.8,72,69,66,30.21,30.09,17,7,17,0.00
2013-12-6,83.3,78.8,76.5,70.0,67.8,64.7,77,69,61,30.21,30.12,16,8,16,0.00
2013-12-7,84.4,78.1,72.9,70.3,67.9,64.6,79,71,60,30.27,30.18,14,5,14,0.04
2013-12-8,82.9,78.8,74.8,69.5,67.5,65.0,80,69,60,30.24,30.15,20,8,20,0.00
2013-12-9,83.7,79.3,76.6,69.3,67.1,64.0,75,67,56,30.24,30.15,18,8,18,0.00
2013-12-10,84.9,79.5,76.6,72.8,69.5,67.0,78,72,66,30.21,30.09,14,5,14,0.00
2013-12-11,83.5,78.8,73.6,73.0,70.2,68.1,89,75,64,30.24,30.12,7,3,7,0.00
2013-12-12,79.0,74.3,71.6,71.1,65.7,57.5,93,75,59,30.27,30.15,18,7,18,0.00
2013-12-13,77.2,74.0,71.4,67.7,61.0,54.1,78,64,54,30.24,30.12,20,10,20,0.00
2013-12-14,82.0,78.2,75.2,71.5,69.6,67.1,78,75,68,30.15,30.00,21,9,21,0.00
2013-12-15,82.2,77.5,72.5,73.4,69.9,67.7,85,78,68,30.09,29.94,17,5,17,0.00
2013-12-16,73.0,69.0,63.7,67.7,59.9,56.4,85,73,63,30.18,30.06,13,7,13,0.00
2013-12-17,75.2,68.6,61.0,65.8,58.3,53.9,92,72,54,30.21,30.12,13,6,13,0.00
2013-12-18,74.1,67.8,63.1,58.4,55.3,52.0,83,65,50,30.27,30.15,14,6,14,0.00
2013-12-19,77.4,73.0,64.9,58.6,56.3,54.0,70,56,48,30.27,30.18,13,6,13,0.00
2013-12-20,79.3,77.1,74.5,66.8,63.9,58.2,69,64,57,30.24,29.91,14,5,14,0.00
2013-12-21,82.9,78.9,76.8,71.8,70.0,66.4,80,74,67,30.18,30.09,20,10,20,0.00
2013-12-22,83.8,79.6,77.2,72.7,71.3,70.0,81,76,68,30.21,30.09,22,10,22,0.00
2013-12-23,83.7,79.2,75.6,73.9,71.4,68.8,83,77,68,30.24,30.12,17,7,17,0.00
2013-12-24,80.1,73.8,69.6,73.3,67.7,62.3,94,82,68,30.21,30.12,20,5,20,0.00
2013-12-25,76.1,73.7,72.1,67.4,64.8,63.4,84,74,66,30.21,30.12,20,10,20,0.10
2013-12-26,78.8,75.7,73.6,69.8,68.4,66.5,81,78,71,30.21,30.06,16,8,16,0.00
2013-12-27,80.1,76.9,75.2,70.5,68.4,67.0,80,75,70,30.24,30.09,17,8,17,0.00
2013-12-28,79.2,76.9,75.4,72.6,70.2,66.9,88,80,74,30.21,30.06,17,9,17,0.06
2013-12-29,80.6,77.7,75.4,74.8,72.8,71.7,92,85,79,30.09,29.94,20,8,20,0.00
2013-12-30,77.4,73.6,70.2,73.4,70.5,65.1,97,90,81,30.18,30.00,11,4,11,0.00
2013-12-31,77.0,73.3,69.1,68.7,63.7,60.0,88,73,62,30.27,30.12,17,8,17,0.00
2014-1-1,80.4,76.5,74.1,72.9,69.0,62.0,84,78,67,30.21,30.06,17,9,17,0.02
2014-1-2,83.1,78.1,74.7,72.0,68.6,63.2,84,73,59,30.09,29.88,18,7,18,0.00